Time;durP1;ratioP1;P1;durP2;ratioP2;P2;SDS_P1;SDS_P2;PMS_P1;PMS_P2;Temp;Humidity;BMP_temperature;BMP_pressure;BME280_temperature;BME280_humidity;BME280_pressure;Samples;Min_cycle;Max_cycle;Signal;HPM_P1;HPM_P2
2022/01/31 00:00:17;;;;;;;28.00;4.93;;;1.70;1.00;;;;;;4473849;27;655516;-71
2022/01/31 00:03:04;;;;;;;23.83;4.13;;;1.70;1.00;;;;;;4492260;27;655401;-69
2022/01/31 00:05:52;;;;;;;27.90;4.47;;;1.70;1.00;;;;;;4472081;27;655441;-70
2022/01/31 00:08:42;;;;;;;17.83;4.07;;;1.70;1.00;;;;;;4495739;27;655909;-70
2022/01/31 00:11:30;;;;;;;21.43;3.20;;;1.70;1.00;;;;;;4471084;27;655740;-69
2022/01/31 00:14:30;;;;;;;21.00;3.43;;;1.70;1.00;;;;;;4470196;27;657272;-70
2022/01/31 00:17:18;;;;;;;18.97;3.63;;;1.70;1.00;;;;;;4475984;27;656179;-70
2022/01/31 00:20:06;;;;;;;30.07;5.10;;;1.70;1.00;;;;;;4493920;27;655757;-70
2022/01/31 00:22:54;;;;;;;18.13;3.10;;;1.70;1.00;;;;;;4473860;27;656116;-70
2022/01/31 00:25:44;;;;;;;29.53;3.50;;;1.70;1.00;;;;;;4478953;27;656029;-71
2022/01/31 00:28:31;;;;;;;28.83;5.03;;;1.70;1.00;;;;;;4476419;27;655437;-70
2022/01/31 00:31:19;;;;;;;21.63;3.20;;;1.70;1.00;;;;;;4493682;27;656225;-69
2022/01/31 00:34:07;;;;;;;37.40;4.87;;;1.70;1.00;;;;;;4476068;27;655270;-70
2022/01/31 00:36:55;;;;;;;19.73;3.17;;;1.60;1.00;;;;;;4495654;27;655511;-70
2022/01/31 00:39:43;;;;;;;21.57;3.67;;;1.70;1.00;;;;;;4473803;27;657147;-71
2022/01/31 00:42:32;;;;;;;16.40;3.10;;;1.70;1.00;;;;;;4493908;27;655862;-70
2022/01/31 00:45:25;;;;;;;8.07;2.03;;;1.70;1.00;;;;;;4497141;27;655641;-70
2022/01/31 00:48:17;;;;;;;22.90;3.17;;;1.70;1.00;;;;;;4474717;27;654989;-70
2022/01/31 00:51:05;;;;;;;18.07;3.33;;;1.70;1.00;;;;;;4468861;27;656400;-71
2022/01/31 00:53:52;;;;;;;17.70;2.97;;;1.70;1.00;;;;;;4469604;27;656390;-70
2022/01/31 00:56:40;;;;;;;20.47;2.93;;;1.70;1.00;;;;;;4489275;27;655389;-69
2022/01/31 00:59:29;;;;;;;25.67;3.47;;;1.70;1.00;;;;;;4474610;27;656442;-71
2022/01/31 01:02:17;;;;;;;22.73;3.53;;;1.70;1.00;;;;;;4471698;27;656219;-70
2022/01/31 01:05:05;;;;;;;19.13;3.67;;;1.70;1.00;;;;;;4491987;27;655559;-70
2022/01/31 01:07:53;;;;;;;18.63;3.53;;;1.60;1.00;;;;;;4471002;27;656411;-70
2022/01/31 01:10:41;;;;;;;18.50;2.60;;;1.60;1.00;;;;;;4486094;27;655910;-71
2022/01/31 01:13:29;;;;;;;18.40;3.27;;;1.70;1.00;;;;;;4496024;27;655438;-70
2022/01/31 01:16:18;;;;;;;15.70;2.83;;;1.60;1.00;;;;;;4472016;27;656143;-70
2022/01/31 01:19:05;;;;;;;17.63;2.87;;;1.70;1.00;;;;;;4491861;27;655434;-69
2022/01/31 01:21:53;;;;;;;24.37;2.93;;;1.60;1.00;;;;;;4469607;27;656924;-70
2022/01/31 01:24:40;;;;;;;12.77;2.20;;;1.60;1.00;;;;;;4488710;27;655436;-70
2022/01/31 01:27:28;;;;;;;18.13;2.60;;;1.60;1.00;;;;;;4469780;27;656481;-70
2022/01/31 01:30:16;;;;;;;11.87;2.73;;;1.60;1.00;;;;;;4483956;27;655972;-70
2022/01/31 01:33:10;;;;;;;19.27;2.80;;;1.60;1.00;;;;;;4496416;27;657592;-70
2022/01/31 01:35:57;;;;;;;30.37;3.47;;;1.60;1.00;;;;;;4473499;27;655932;-71
2022/01/31 01:38:44;;;;;;;27.27;2.97;;;1.50;1.00;;;;;;4489749;27;656037;-70
2022/01/31 01:41:32;;;;;;;12.03;2.60;;;1.50;1.00;;;;;;4474613;27;655699;-70
2022/01/31 01:44:20;;;;;;;16.73;3.08;;;1.40;1.00;;;;;;4489012;27;656379;-70
2022/01/31 01:47:08;;;;;;;14.27;2.47;;;1.50;1.00;;;;;;4473335;27;656518;-71
2022/01/31 01:49:57;;;;;;;24.80;3.27;;;1.50;1.00;;;;;;4486965;27;655490;-71
2022/01/31 01:52:45;;;;;;;17.53;2.70;;;1.40;1.00;;;;;;4494306;27;655466;-71
2022/01/31 01:55:33;;;;;;;10.43;2.33;;;1.40;1.00;;;;;;4469896;27;657464;-70
2022/01/31 01:58:21;;;;;;;17.67;2.67;;;1.40;1.00;;;;;;4491872;27;655569;-70
2022/01/31 02:01:12;;;;;;;13.23;1.93;;;1.40;1.00;;;;;;4474997;27;656194;-71
2022/01/31 02:03:59;;;;;;;20.67;2.80;;;1.30;1.00;;;;;;4468689;27;655343;-70
2022/01/31 02:06:48;;;;;;;18.13;3.72;;;1.30;1.00;;;;;;4470056;27;655561;-69
2022/01/31 02:09:42;;;;;;;13.43;2.10;;;1.30;1.00;;;;;;4469832;27;655953;-71
2022/01/31 02:12:39;;;;;;;21.77;3.07;;;1.30;1.00;;;;;;4471493;27;656345;-69
2022/01/31 02:15:26;;;;;;;15.03;2.23;;;1.20;1.00;;;;;;4450479;27;655993;-70
2022/01/31 02:18:15;;;;;;;17.77;2.83;;;1.20;1.00;;;;;;4493352;27;655730;-70
2022/01/31 02:21:04;;;;;;;9.43;2.03;;;1.10;1.00;;;;;;4471276;27;655792;-70
2022/01/31 02:23:51;;;;;;;23.33;2.97;;;1.10;1.00;;;;;;4477386;27;654994;-69
2022/01/31 02:26:39;;;;;;;11.03;2.17;;;1.10;1.00;;;;;;4488240;27;656848;-70
2022/01/31 02:29:26;;;;;;;15.33;2.60;;;1.10;1.00;;;;;;4472118;27;655441;-70
2022/01/31 02:32:15;;;;;;;17.10;2.85;;;1.00;1.00;;;;;;4491857;27;656562;-70
2022/01/31 02:35:04;;;;;;;21.20;2.80;;;0.90;1.00;;;;;;4468509;27;656022;-70
2022/01/31 02:37:53;;;;;;;19.97;3.00;;;0.90;1.00;;;;;;4470795;27;655530;-70
2022/01/31 02:40:41;;;;;;;23.37;2.27;;;0.90;1.00;;;;;;4470535;27;655318;-70
2022/01/31 02:43:30;;;;;;;18.90;3.20;;;1.00;1.00;;;;;;4495956;27;655898;-70
2022/01/31 02:46:18;;;;;;;20.83;2.77;;;0.90;1.00;;;;;;4468468;27;656942;-71
2022/01/31 02:49:06;;;;;;;13.63;2.30;;;0.90;1.00;;;;;;4491469;27;655748;-71
2022/01/31 02:51:55;;;;;;;12.43;2.23;;;0.90;1.00;;;;;;4489392;27;656769;-70
2022/01/31 02:54:44;;;;;;;11.50;2.00;;;0.90;1.00;;;;;;4471978;27;656361;-70
2022/01/31 02:57:32;;;;;;;24.10;2.93;;;0.90;1.00;;;;;;4471026;27;655821;-70
2022/01/31 03:00:19;;;;;;;12.97;2.63;;;0.80;1.00;;;;;;4490979;27;655725;-72
2022/01/31 03:03:07;;;;;;;9.67;2.23;;;0.80;1.00;;;;;;4470175;27;655394;-70
2022/01/31 03:05:55;;;;;;;15.57;2.30;;;0.90;1.00;;;;;;4492475;27;655250;-70
2022/01/31 03:08:42;;;;;;;21.57;2.90;;;0.90;1.00;;;;;;4472807;27;656205;-71
2022/01/31 03:11:31;;;;;;;12.67;2.53;;;0.90;1.00;;;;;;4493670;27;654987;-70
2022/01/31 03:14:19;;;;;;;16.87;2.40;;;0.80;1.00;;;;;;4471000;27;656532;-70
2022/01/31 03:17:07;;;;;;;8.93;1.30;;;0.90;1.00;;;;;;4473180;27;656709;-70
2022/01/31 03:19:55;;;;;;;19.47;2.63;;;0.90;1.00;;;;;;4489454;27;654943;-70
2022/01/31 03:22:42;;;;;;;19.57;2.73;;;0.90;1.00;;;;;;4469152;27;655338;-70
2022/01/31 03:25:30;;;;;;;10.80;2.03;;;0.90;1.00;;;;;;4491001;27;656391;-70
2022/01/31 03:28:19;;;;;;;11.17;1.83;;;0.90;1.00;;;;;;4470970;27;656717;-70
2022/01/31 03:31:07;;;;;;;27.75;3.30;;;0.90;1.00;;;;;;4472797;27;655279;-70
2022/01/31 03:33:54;;;;;;;17.47;2.93;;;0.90;1.00;;;;;;4492534;27;655860;-70
2022/01/31 03:36:43;;;;;;;19.47;2.87;;;0.90;1.00;;;;;;4468495;27;655779;-69
2022/01/31 03:39:31;;;;;;;21.17;2.90;;;0.90;1.00;;;;;;4488500;27;655589;-71
2022/01/31 03:42:18;;;;;;;20.83;3.33;;;0.90;1.00;;;;;;4492174;27;656544;-70
2022/01/31 03:45:09;;;;;;;30.10;3.93;;;0.90;1.00;;;;;;4476537;27;656621;-70
2022/01/31 03:47:59;;;;;;;17.57;3.03;;;0.80;1.00;;;;;;4475950;27;656302;-70
2022/01/31 03:50:47;;;;;;;21.07;2.70;;;0.80;1.00;;;;;;4478441;27;656290;-70
2022/01/31 03:53:35;;;;;;;20.38;2.80;;;0.80;1.00;;;;;;4492195;27;655233;-70
2022/01/31 03:56:22;;;;;;;24.50;2.90;;;0.80;1.00;;;;;;4471796;27;655005;-70
2022/01/31 03:59:10;;;;;;;15.00;3.10;;;0.80;1.00;;;;;;4498672;27;655724;-69
2022/01/31 04:01:59;;;;;;;15.13;2.53;;;0.80;1.00;;;;;;4466961;27;657050;-70
2022/01/31 04:04:46;;;;;;;28.33;3.10;;;0.90;1.00;;;;;;4478651;27;655794;-70
2022/01/31 04:07:34;;;;;;;6.82;1.55;;;0.80;1.00;;;;;;4500644;27;656874;-70
2022/01/31 04:10:22;;;;;;;24.13;3.03;;;0.80;1.00;;;;;;4472057;27;654711;-72
2022/01/31 04:13:09;;;;;;;23.23;3.60;;;0.80;1.00;;;;;;4489126;27;656918;-70
2022/01/31 04:15:57;;;;;;;13.67;2.67;;;0.80;1.00;;;;;;4469024;27;655877;-70
2022/01/31 04:18:46;;;;;;;14.93;2.93;;;0.80;1.00;;;;;;4495859;27;655494;-70
2022/01/31 04:21:33;;;;;;;21.63;3.07;;;0.80;1.00;;;;;;4476620;27;656219;-70
2022/01/31 04:24:29;;;;;;;13.03;2.70;;;0.80;1.00;;;;;;4471022;27;655766;-71
2022/01/31 04:27:19;;;;;;;16.83;2.23;;;0.70;1.00;;;;;;4471253;27;655469;-71
2022/01/31 04:30:08;;;;;;;13.23;2.00;;;0.70;1.00;;;;;;4487147;27;655506;-71
2022/01/31 04:32:56;;;;;;;27.73;3.70;;;0.70;1.00;;;;;;4497056;27;655298;-70
2022/01/31 04:35:45;;;;;;;20.20;3.13;;;0.70;1.00;;;;;;4493991;27;656945;-70
2022/01/31 04:38:34;;;;;;;20.93;3.13;;;0.60;1.00;;;;;;4475824;27;656693;-70
2022/01/31 04:41:21;;;;;;;19.30;2.70;;;0.60;1.00;;;;;;4475832;27;655419;-70
2022/01/31 04:44:10;;;;;;;17.60;3.13;;;0.60;1.00;;;;;;4497096;27;656224;-70
2022/01/31 04:46:57;;;;;;;15.00;3.37;;;0.60;1.00;;;;;;4475626;27;655805;-70
2022/01/31 04:49:45;;;;;;;16.00;2.50;;;0.60;1.00;;;;;;4493723;27;655483;-70
2022/01/31 04:52:33;;;;;;;18.87;3.47;;;0.50;1.00;;;;;;4473665;27;655136;-70
2022/01/31 04:55:21;;;;;;;20.17;3.30;;;0.50;1.00;;;;;;4473901;27;655990;-70
2022/01/31 04:58:09;;;;;;;23.13;3.50;;;0.60;1.00;;;;;;4496535;27;656542;-69
2022/01/31 05:00:57;;;;;;;19.02;2.90;;;0.50;1.00;;;;;;4475294;27;655781;-70
2022/01/31 05:03:46;;;;;;;17.53;2.63;;;0.50;1.00;;;;;;4497779;27;656547;-70
2022/01/31 05:06:37;;;;;;;21.03;2.97;;;0.50;1.00;;;;;;4471959;27;655926;-70
2022/01/31 05:09:26;;;;;;;28.40;3.40;;;0.40;1.00;;;;;;4478584;27;656006;-70
2022/01/31 05:12:14;;;;;;;23.20;3.67;;;0.30;1.00;;;;;;4478872;27;657006;-70
2022/01/31 05:15:01;;;;;;;11.30;2.57;;;0.30;1.00;;;;;;4477264;27;655716;-70
2022/01/31 05:17:49;;;;;;;20.70;3.50;;;0.20;1.00;;;;;;4500051;27;655954;-70
2022/01/31 05:20:36;;;;;;;30.60;4.30;;;0.20;1.00;;;;;;4474510;27;656232;-70
2022/01/31 05:23:24;;;;;;;23.77;4.20;;;0.10;1.00;;;;;;4500627;27;656829;-70
2022/01/31 05:26:13;;;;;;;24.13;3.93;;;0.10;1.00;;;;;;4479014;27;655445;-69
2022/01/31 05:29:01;;;;;;;20.87;4.10;;;0.00;1.00;;;;;;4487642;27;655571;-70
2022/01/31 05:31:52;;;;;;;24.63;4.13;;;0.00;1.00;;;;;;4502981;27;656585;-69
2022/01/31 05:34:40;;;;;;;25.40;4.73;;;0.00;1.00;;;;;;4470670;27;655661;-70
2022/01/31 05:37:27;;;;;;;26.37;4.70;;;0.00;1.00;;;;;;4478974;27;655423;-70
2022/01/31 05:40:15;;;;;;;22.00;4.47;;;-0.10;1.00;;;;;;4499638;27;655595;-70
2022/01/31 05:43:04;;;;;;;27.57;4.60;;;-0.10;1.00;;;;;;4481044;27;658027;-70
2022/01/31 05:45:51;;;;;;;26.63;4.13;;;-0.10;1.00;;;;;;4475973;27;656790;-71
2022/01/31 05:48:39;;;;;;;22.10;4.50;;;-0.20;1.00;;;;;;4495013;27;657214;-69
2022/01/31 05:51:26;;;;;;;21.53;4.37;;;-0.20;1.00;;;;;;4479027;27;658703;-70
2022/01/31 05:54:14;;;;;;;29.00;4.70;;;-0.20;1.00;;;;;;4494809;27;657895;-69
2022/01/31 05:57:01;;;;;;;18.00;4.07;;;-0.30;1.00;;;;;;4478686;27;657983;-70
2022/01/31 05:59:50;;;;;;;22.83;4.97;;;-0.30;1.00;;;;;;4498310;27;658015;-70
2022/01/31 06:02:39;;;;;;;23.00;4.37;;;-0.30;1.00;;;;;;4467847;27;657868;-69
2022/01/31 06:05:26;;;;;;;25.87;4.87;;;-0.30;1.00;;;;;;4474092;27;657643;-70
2022/01/31 06:08:14;;;;;;;26.57;4.97;;;-0.40;1.00;;;;;;4498804;27;657834;-70
2022/01/31 06:11:02;;;;;;;27.27;4.43;;;-0.30;1.00;;;;;;4473168;27;656539;-69
2022/01/31 06:13:50;;;;;;;28.57;5.17;;;-0.30;1.00;;;;;;4494601;27;657085;-69
2022/01/31 06:16:39;;;;;;;23.17;5.10;;;-0.30;1.00;;;;;;4474659;27;658528;-70
2022/01/31 06:19:26;;;;;;;25.23;5.70;;;-0.20;1.00;;;;;;4468487;27;656789;-70
2022/01/31 06:22:14;;;;;;;24.03;5.97;;;-0.20;1.00;;;;;;4498326;27;657260;-70
2022/01/31 06:25:46;;;;;;;35.40;7.83;;;-0.20;1.00;;;;;;4466531;27;656587;-70
2022/01/31 06:28:34;;;;;;;25.07;6.47;;;-0.20;1.00;;;;;;4478981;27;656871;-70
2022/01/31 06:31:21;;;;;;;31.57;6.27;;;-0.20;1.00;;;;;;4483757;27;656609;-70
2022/01/31 06:34:10;;;;;;;41.27;7.00;;;-0.10;1.00;;;;;;4516993;27;657058;-69
2022/01/31 06:37:02;;;;;;;32.20;6.60;;;-0.10;1.00;;;;;;4474172;27;657000;-70
2022/01/31 06:39:49;;;;;;;24.77;7.53;;;-0.10;1.00;;;;;;4485968;27;656640;-70
2022/01/31 06:42:37;;;;;;;33.20;6.50;;;0.00;1.00;;;;;;4479775;27;657089;-69
2022/01/31 06:45:24;;;;;;;27.63;5.70;;;0.00;1.00;;;;;;4500460;27;655731;-69
2022/01/31 06:48:12;;;;;;;28.97;6.50;;;0.10;1.00;;;;;;4476036;27;655499;-70
2022/01/31 06:51:01;;;;;;;27.93;6.17;;;0.00;1.00;;;;;;4495965;27;655416;-70
2022/01/31 06:53:49;;;;;;;34.53;7.23;;;0.00;1.00;;;;;;4469761;27;656062;-69
2022/01/31 06:56:39;;;;;;;31.77;6.87;;;0.10;1.00;;;;;;4484655;27;655368;-69
2022/01/31 06:59:27;;;;;;;40.00;6.13;;;0.00;1.00;;;;;;4481098;27;656149;-70
2022/01/31 07:02:14;;;;;;;35.50;6.80;;;0.10;1.00;;;;;;4499984;27;655337;-70
2022/01/31 07:05:02;;;;;;;29.40;5.37;;;0.20;1.00;;;;;;4479681;27;655426;-70
2022/01/31 07:07:51;;;;;;;26.90;6.67;;;0.30;1.00;;;;;;4505317;27;655538;-69
2022/01/31 07:10:39;;;;;;;25.33;5.97;;;0.30;1.00;;;;;;4471067;27;656520;-69
2022/01/31 07:13:38;;;;;;;23.00;6.43;;;0.30;1.00;;;;;;4482852;27;655840;-70
2022/01/31 07:16:25;;;;;;;24.23;6.33;;;0.30;1.00;;;;;;4471137;27;655908;-69
2022/01/31 07:19:13;;;;;;;24.17;5.47;;;0.40;1.00;;;;;;4478769;27;655781;-69
2022/01/31 07:22:03;;;;;;;27.57;5.37;;;0.50;1.00;;;;;;4485888;27;656427;-71
2022/01/31 07:25:02;;;;;;;20.42;4.22;;;0.50;1.00;;;;;;4479583;27;655811;-70
2022/01/31 07:27:49;;;;;;;20.47;4.77;;;0.50;1.00;;;;;;4468830;27;656142;-69
2022/01/31 07:30:37;;;;;;;20.97;3.87;;;0.60;1.00;;;;;;4474568;27;655366;-70
2022/01/31 07:33:25;;;;;;;31.93;4.80;;;0.70;1.00;;;;;;4494804;27;656063;-69
2022/01/31 07:36:12;;;;;;;23.80;3.97;;;0.70;1.00;;;;;;4466342;27;656568;-70
2022/01/31 07:39:00;;;;;;;22.13;4.90;;;0.80;1.00;;;;;;4490468;27;656089;-69
2022/01/31 07:41:49;;;;;;;19.37;4.20;;;0.90;1.00;;;;;;4468553;27;656110;-69
2022/01/31 07:44:37;;;;;;;20.90;4.53;;;0.90;1.00;;;;;;4471841;27;655888;-69
2022/01/31 07:47:24;;;;;;;27.53;4.13;;;1.00;1.00;;;;;;4489364;27;655512;-70
2022/01/31 07:50:13;;;;;;;29.73;5.20;;;1.00;1.00;;;;;;4464622;27;656262;-69
2022/01/31 07:53:03;;;;;;;24.87;4.63;;;1.10;1.00;;;;;;4490874;27;655637;-71
2022/01/31 07:55:51;;;;;;;21.70;3.73;;;1.10;1.00;;;;;;4494883;27;655501;-70
2022/01/31 07:58:40;;;;;;;21.23;4.03;;;1.10;1.00;;;;;;4493954;27;657409;-69
2022/01/31 08:01:28;;;;;;;27.23;5.27;;;1.10;1.00;;;;;;4471490;27;656067;-69
2022/01/31 08:04:16;;;;;;;23.57;4.13;;;1.10;1.00;;;;;;4483964;27;655603;-71
2022/01/31 08:07:04;;;;;;;26.57;5.13;;;1.10;1.00;;;;;;4507789;27;656314;-69
2022/01/31 08:09:52;;;;;;;19.23;4.67;;;1.10;1.00;;;;;;4476918;27;655876;-69
2022/01/31 08:12:41;;;;;;;39.40;6.37;;;1.20;1.00;;;;;;4497178;27;655416;-69
2022/01/31 08:15:33;;;;;;;25.40;6.30;;;1.20;1.00;;;;;;4474988;27;656495;-69
2022/01/31 08:18:21;;;;;;;30.03;6.80;;;1.20;1.00;;;;;;4452649;27;656293;-71
2022/01/31 08:21:09;;;;;;;38.27;7.27;;;1.30;1.00;;;;;;4505107;27;655785;-69
2022/01/31 08:23:56;;;;;;;26.90;6.60;;;1.30;1.00;;;;;;4477681;27;655634;-70
2022/01/31 08:26:44;;;;;;;31.75;7.28;;;1.30;1.00;;;;;;4502960;27;657294;-71
2022/01/31 08:29:36;;;;;;;34.10;7.80;;;1.30;1.00;;;;;;4472521;27;656157;-69
2022/01/31 08:32:33;;;;;;;30.47;7.87;;;1.30;1.00;;;;;;4463194;27;656475;-70
2022/01/31 08:38:26;;;;;;;38.97;8.03;;;1.30;1.00;;;;;;4447651;27;655879;-70
2022/01/31 08:41:14;;;;;;;42.90;8.30;;;1.30;1.00;;;;;;4498914;27;655654;-69
2022/01/31 08:44:02;;;;;;;32.50;6.93;;;1.30;1.00;;;;;;4472431;27;656184;-70
2022/01/31 08:46:50;;;;;;;42.13;9.20;;;1.30;1.00;;;;;;4487822;27;655688;-69
2022/01/31 08:49:40;;;;;;;36.47;8.43;;;1.20;1.00;;;;;;4473640;27;657225;-70
2022/01/31 08:52:27;;;;;;;38.57;9.20;;;1.30;1.00;;;;;;4470283;27;655396;-70
2022/01/31 08:55:15;;;;;;;29.47;7.90;;;1.30;1.00;;;;;;4487124;27;655237;-70
2022/01/31 08:58:05;;;;;;;33.40;8.57;;;1.40;1.00;;;;;;4471727;27;655679;-69
2022/01/31 09:01:00;;;;;;;44.43;9.17;;;1.40;1.00;;;;;;4466477;27;657210;-70
2022/01/31 09:04:04;;;;;;;30.97;8.00;;;1.40;1.00;;;;;;4441012;27;655722;-70
2022/01/31 09:06:53;;;;;;;40.30;8.90;;;1.40;1.00;;;;;;4439776;27;657113;-70
2022/01/31 09:09:41;;;;;;;27.55;6.32;;;1.40;1.00;;;;;;4470976;27;655777;-71
2022/01/31 09:12:31;;;;;;;34.60;8.13;;;1.50;1.00;;;;;;4488666;27;656172;-70
2022/01/31 09:15:19;;;;;;;32.07;6.93;;;1.50;1.00;;;;;;4469348;27;656039;-69
2022/01/31 09:18:08;;;;;;;38.10;6.97;;;1.50;1.00;;;;;;4471036;27;656133;-70
2022/01/31 09:20:57;;;;;;;36.27;7.03;;;1.40;1.00;;;;;;4487104;27;655943;-70
2022/01/31 09:23:51;;;;;;;28.23;6.67;;;1.40;1.00;;;;;;4487750;27;655852;-70
2022/01/31 09:26:39;;;;;;;26.15;5.35;;;1.40;1.00;;;;;;4471377;27;656055;-70
2022/01/31 09:29:26;;;;;;;29.03;6.63;;;1.30;1.00;;;;;;4462637;27;655816;-70
2022/01/31 09:32:15;;;;;;;21.57;5.87;;;1.40;1.00;;;;;;4492806;27;656411;-70
2022/01/31 09:35:03;;;;;;;38.83;7.13;;;1.40;1.00;;;;;;4467309;27;657124;-70
2022/01/31 09:37:50;;;;;;;31.60;7.23;;;1.40;1.00;;;;;;4491839;27;655700;-70
2022/01/31 09:40:39;;;;;;;26.37;6.60;;;1.40;1.00;;;;;;4468754;27;656554;-69
2022/01/31 09:43:56;;;;;;;34.53;6.70;;;1.50;1.00;;;;;;4477708;27;656497;-69
2022/01/31 09:47:05;;;;;;;31.57;6.23;;;1.50;1.00;;;;;;4471674;27;655834;-69
2022/01/31 09:49:53;;;;;;;36.07;7.43;;;1.50;1.00;;;;;;4470058;27;656418;-69
2022/01/31 09:52:41;;;;;;;26.40;6.50;;;1.60;1.00;;;;;;4494944;27;655953;-69
2022/01/31 09:55:30;;;;;;;33.63;7.53;;;1.60;1.00;;;;;;4460062;27;657291;-69
2022/01/31 09:58:19;;;;;;;39.03;8.93;;;1.60;1.00;;;;;;4472596;27;656409;-69
2022/01/31 10:01:08;;;;;;;27.73;7.83;;;1.60;1.00;;;;;;4474194;27;656056;-69
2022/01/31 10:03:57;;;;;;;49.25;10.13;;;1.60;1.00;;;;;;4478956;27;657539;-70
2022/01/31 10:06:45;;;;;;;40.97;9.23;;;1.60;1.00;;;;;;4496200;27;657157;-69
2022/01/31 10:09:33;;;;;;;46.87;11.10;;;1.60;1.00;;;;;;4465800;27;656355;-70
2022/01/31 10:12:30;;;;;;;41.97;9.90;;;1.60;1.00;;;;;;4469176;27;656690;-70
2022/01/31 10:18:24;;;;;;;23.27;6.97;;;1.70;1.00;;;;;;4467952;27;656426;-69
2022/01/31 10:21:11;;;;;;;31.20;8.13;;;1.60;1.00;;;;;;4478099;27;655643;-70
2022/01/31 10:23:59;;;;;;;41.83;9.33;;;1.60;1.00;;;;;;4493213;27;655765;-69
2022/01/31 10:26:46;;;;;;;46.90;9.43;;;1.50;1.00;;;;;;4471125;27;655300;-70
2022/01/31 10:29:34;;;;;;;37.67;8.00;;;1.50;1.00;;;;;;4491994;27;657125;-69
2022/01/31 10:32:28;;;;;;;35.40;7.63;;;1.50;1.00;;;;;;4474266;27;655947;-70
2022/01/31 10:35:18;;;;;;;37.27;8.47;;;1.60;1.00;;;;;;4488676;27;654997;-70
2022/01/31 10:38:10;;;;;;;36.03;8.40;;;1.60;1.00;;;;;;4492484;27;656216;-71
2022/01/31 10:44:46;;;;;;;43.43;9.47;;;1.60;1.00;;;;;;4445147;27;656103;-69
2022/01/31 10:50:46;;;;;;;46.13;8.93;;;1.60;1.00;;;;;;4414561;27;655570;-70
2022/01/31 10:53:39;;;;;;;46.33;7.50;;;1.60;1.00;;;;;;4464132;27;656266;-69
2022/01/31 10:56:35;;;;;;;39.07;8.43;;;1.50;1.00;;;;;;4470326;27;655756;-70
2022/01/31 10:59:25;;;;;;;33.13;6.73;;;1.60;1.00;;;;;;4443958;27;655592;-69
2022/01/31 11:02:16;;;;;;;29.67;7.57;;;1.50;1.00;;;;;;4471256;27;656477;-69
2022/01/31 11:05:06;;;;;;;32.90;7.50;;;1.60;1.00;;;;;;4467467;27;656845;-69
2022/01/31 11:08:17;;;;;;;36.67;7.13;;;1.50;1.00;;;;;;4474070;27;656815;-69
2022/01/31 11:11:05;;;;;;;42.77;7.93;;;1.50;1.00;;;;;;4466478;27;655495;-69
2022/01/31 11:13:52;;;;;;;40.87;7.20;;;1.40;1.00;;;;;;4472110;27;656000;-69
2022/01/31 11:16:42;;;;;;;35.57;6.53;;;1.50;1.00;;;;;;4494184;27;655821;-69
2022/01/31 11:19:32;;;;;;;37.53;6.70;;;1.50;1.00;;;;;;4472763;27;655757;-69
2022/01/31 11:22:28;;;;;;;39.83;8.17;;;1.50;1.00;;;;;;4466506;27;656055;-69
2022/01/31 11:25:17;;;;;;;37.83;7.50;;;1.50;1.00;;;;;;4444219;27;655435;-70
2022/01/31 11:28:05;;;;;;;34.27;6.70;;;1.50;1.00;;;;;;4492370;27;656063;-69
2022/01/31 11:30:52;;;;;;;40.60;8.40;;;1.50;1.00;;;;;;4475787;27;656403;-70
2022/01/31 11:33:40;;;;;;;34.10;7.07;;;1.60;1.00;;;;;;4491466;27;655842;-70
2022/01/31 11:36:28;;;;;;;11.87;2.60;;;1.60;1.00;;;;;;4470419;27;656816;-70
2022/01/31 11:39:19;;;;;;;29.60;6.45;;;1.60;1.00;;;;;;4480170;27;656035;-71
2022/01/31 11:42:07;;;;;;;38.90;6.13;;;1.60;1.00;;;;;;4469085;27;656073;-70
2022/01/31 11:44:58;;;;;;;28.23;5.87;;;1.70;1.00;;;;;;4490655;27;655743;-69
2022/01/31 11:47:48;;;;;;;41.60;6.53;;;1.70;1.00;;;;;;4458277;27;655288;-70
2022/01/31 11:50:43;;;;;;;38.30;6.73;;;1.80;1.00;;;;;;4470535;27;656104;-70
2022/01/31 11:53:32;;;;;;;33.53;7.35;;;1.80;1.00;;;;;;4459601;27;655586;-69
2022/01/31 11:56:22;;;;;;;28.70;6.27;;;1.80;1.00;;;;;;4489882;27;657138;-70
2022/01/31 11:59:09;;;;;;;36.40;6.33;;;1.80;1.00;;;;;;4462023;27;655942;-69
2022/01/31 12:01:58;;;;;;;31.65;6.80;;;1.70;1.00;;;;;;4470989;27;657368;-69
2022/01/31 12:04:49;;;;;;;35.05;6.70;;;1.70;1.00;;;;;;4471141;27;655467;-71
2022/01/31 12:07:39;;;;;;;32.33;6.07;;;1.70;1.00;;;;;;4468146;27;656468;-70
2022/01/31 12:10:32;;;;;;;26.77;5.20;;;1.80;1.00;;;;;;4468616;27;656257;-70
2022/01/31 12:13:37;;;;;;;30.45;5.32;;;1.90;1.00;;;;;;4463929;27;656163;-69
2022/01/31 12:16:43;;;;;;;34.23;6.50;;;1.90;1.00;;;;;;4461985;27;655995;-70
2022/01/31 12:19:59;;;;;;;39.03;6.03;;;2.00;1.00;;;;;;4450127;27;655753;-70
2022/01/31 12:22:48;;;;;;;36.87;6.77;;;2.00;1.00;;;;;;4439256;27;656476;-70
2022/01/31 12:25:35;;;;;;;29.70;5.43;;;1.90;1.00;;;;;;4491755;27;655313;-69
2022/01/31 12:28:38;;;;;;;32.80;6.03;;;2.00;1.00;;;;;;4475405;27;656371;-69
2022/01/31 12:31:29;;;;;;;30.53;6.07;;;2.00;1.00;;;;;;4461493;27;656139;-71
2022/01/31 12:34:39;;;;;;;30.03;5.43;;;2.10;1.00;;;;;;4474296;27;656139;-70
2022/01/31 12:37:32;;;;;;;23.90;4.70;;;2.10;1.00;;;;;;4467343;27;655142;-68
2022/01/31 12:40:28;;;;;;;17.50;3.50;;;2.10;1.00;;;;;;4469837;27;656875;-69
2022/01/31 12:43:46;;;;;;;11.23;2.00;;;2.10;1.00;;;;;;4462845;27;655517;-70
2022/01/31 12:46:35;;;;;;;20.13;4.10;;;2.10;1.00;;;;;;4464254;27;656638;-69
2022/01/31 12:49:23;;;;;;;31.70;5.50;;;2.00;1.00;;;;;;4470663;27;658307;-71
2022/01/31 12:52:11;;;;;;;36.07;5.77;;;1.90;1.00;;;;;;4482439;27;655615;-70
2022/01/31 12:55:09;;;;;;;25.73;5.20;;;1.90;1.00;;;;;;4497372;27;655985;-69
2022/01/31 12:57:57;;;;;;;23.63;5.23;;;2.00;1.00;;;;;;4472089;27;655339;-70
2022/01/31 13:00:44;;;;;;;29.13;4.70;;;2.00;1.00;;;;;;4485799;27;655922;-70
2022/01/31 13:03:37;;;;;;;22.40;4.13;;;2.00;1.00;;;;;;4470272;27;655464;-70
2022/01/31 13:06:35;;;;;;;22.47;5.00;;;2.10;1.00;;;;;;4475172;27;656006;-69
2022/01/31 13:09:24;;;;;;;26.73;3.87;;;2.10;1.00;;;;;;4471222;27;655418;-70
2022/01/31 13:12:15;;;;;;;27.87;4.70;;;2.10;1.00;;;;;;4478603;27;655506;-70
2022/01/31 13:15:03;;;;;;;30.90;5.40;;;2.10;1.00;;;;;;4474944;27;657001;-70
2022/01/31 13:17:51;;;;;;;28.85;4.57;;;2.10;1.00;;;;;;4468173;27;655543;-71
2022/01/31 13:20:41;;;;;;;13.17;3.80;;;2.20;1.00;;;;;;4490563;27;655698;-69
2022/01/31 13:23:29;;;;;;;30.00;5.20;;;2.20;1.00;;;;;;4472720;27;655714;-70
2022/01/31 13:26:16;;;;;;;29.30;5.93;;;2.20;1.00;;;;;;4477235;27;655731;-70
2022/01/31 13:29:04;;;;;;;33.63;5.13;;;2.20;1.00;;;;;;4497039;27;656026;-69
2022/01/31 13:31:51;;;;;;;31.40;5.60;;;2.20;1.00;;;;;;4469847;27;655267;-69
2022/01/31 13:34:41;;;;;;;34.10;4.90;;;2.10;1.00;;;;;;4490464;27;656731;-70
2022/01/31 13:37:37;;;;;;;26.73;4.80;;;2.20;1.00;;;;;;4468234;27;656750;-70
2022/01/31 13:40:29;;;;;;;28.47;5.37;;;2.20;1.00;;;;;;4469523;27;655738;-70
2022/01/31 13:43:20;;;;;;;38.00;6.30;;;2.20;1.00;;;;;;4453958;27;655820;-71
2022/01/31 13:46:14;;;;;;;27.87;5.40;;;2.30;1.00;;;;;;4462993;27;656462;-69
2022/01/31 13:49:11;;;;;;;44.08;6.45;;;2.40;1.00;;;;;;4435626;27;657381;-69
2022/01/31 13:51:59;;;;;;;37.07;6.13;;;2.40;1.00;;;;;;4453043;27;656470;-69
2022/01/31 13:54:48;;;;;;;41.43;6.60;;;2.40;1.00;;;;;;4453459;27;655997;-70
2022/01/31 13:57:36;;;;;;;31.33;5.53;;;2.40;1.00;;;;;;4457252;27;656219;-70
2022/01/31 14:00:24;;;;;;;31.30;6.20;;;2.40;1.00;;;;;;4475250;27;657155;-70
2022/01/31 14:03:14;;;;;;;38.87;6.33;;;2.30;1.00;;;;;;4453865;27;655101;-70
2022/01/31 14:06:03;;;;;;;38.03;6.00;;;2.30;1.00;;;;;;4453808;27;656085;-70
2022/01/31 14:08:54;;;;;;;28.70;6.10;;;2.30;1.00;;;;;;4466228;27;656675;-71
2022/01/31 14:11:44;;;;;;;29.97;6.03;;;2.20;1.00;;;;;;4445551;27;655468;-70
2022/01/31 14:14:32;;;;;;;31.87;6.13;;;2.30;1.00;;;;;;4455260;27;655687;-69
2022/01/31 14:17:22;;;;;;;37.87;6.50;;;2.20;1.00;;;;;;4475630;27;656686;-69
2022/01/31 14:20:11;;;;;;;38.37;6.90;;;2.20;1.00;;;;;;4442152;27;656027;-69
2022/01/31 14:23:00;;;;;;;32.10;7.17;;;2.20;1.00;;;;;;4457369;27;656807;-70
2022/01/31 14:25:48;;;;;;;35.17;7.60;;;2.20;1.00;;;;;;4455384;27;656864;-70
2022/01/31 14:28:39;;;;;;;32.60;6.93;;;2.20;1.00;;;;;;4451398;27;655701;-70
2022/01/31 14:31:31;;;;;;;38.53;8.47;;;2.10;1.00;;;;;;4450895;27;655298;-70
2022/01/31 14:34:19;;;;;;;30.57;6.83;;;2.10;1.00;;;;;;4446733;27;656319;-70
2022/01/31 14:37:08;;;;;;;35.95;7.60;;;2.10;1.00;;;;;;4450358;27;656158;-70
2022/01/31 14:40:07;;;;;;;32.40;6.93;;;2.00;1.00;;;;;;4458571;27;655350;-70
2022/01/31 14:43:10;;;;;;;37.17;6.80;;;1.90;1.00;;;;;;4447698;27;655991;-70
2022/01/31 14:49:06;;;;;;;33.30;6.23;;;1.90;1.00;;;;;;4493614;27;655304;-71
2022/01/31 14:52:03;;;;;;;42.07;7.67;;;1.80;1.00;;;;;;4493130;27;656441;-70
2022/01/31 14:55:00;;;;;;;50.60;7.63;;;1.80;1.00;;;;;;4460181;27;656000;-71
2022/01/31 14:57:49;;;;;;;30.03;6.50;;;1.70;1.00;;;;;;4467098;27;656172;-70